Wittenberg, Missouri
Current Conditions -  °F | °C
As of 2:52 PM on Friday 31 Oct 2014 (Local Time) from KMDH Reporting Station
Broken Clouds Broken Clouds  
Wind Chill: 39°   Ceiling: 5000
Heat Index: 47°   Visibility: 10mi
Dew Point: 25°   Wind: 25mph
Humidity: 42%   Direction: 340°NNW
Pressure: 30.22"   Gusts: 36mph
Location:  37.677°N, 89.664°W
Report Text: KMDH 311952Z 34022G31KT 10SM BKN050 BKN060 08/M04 A3022 RMK AO2 PK WND 34032/1857 SLP236 T00831039
Loading
Personal Weather Stations






























Interactive Weather Map
Tropical Storm Tracking
New forecast layout! Learn more

10-Day Weather Forecast

Advertisements
Track Severe Weather on mobile